Time;durP1;ratioP1;P1;durP2;ratioP2;P2;SDS_P1;SDS_P2;PMS_P1;PMS_P2;Temp;Humidity;BMP_temperature;BMP_pressure;BME280_temperature;BME280_humidity;BME280_pressure;Samples;Min_cycle;Max_cycle;Signal;HPM_P1;HPM_P2
2020/12/26 00:01:39;;;;;;;15.33;7.10;;;2.20;97.70;;;;;;5047464;28;20176;-86
2020/12/26 00:04:05;;;;;;;10.73;5.33;;;2.20;97.50;;;;;;5047608;28;20434;-85
2020/12/26 00:06:30;;;;;;;14.63;6.40;;;2.10;97.30;;;;;;5048331;28;20977;-86
2020/12/26 00:08:56;;;;;;;18.53;7.10;;;2.00;97.30;;;;;;5046706;28;20504;-86
2020/12/26 00:11:22;;;;;;;16.17;7.10;;;2.00;97.10;;;;;;5045937;28;20419;-84
2020/12/26 00:13:51;;;;;;;11.73;5.90;;;2.10;96.80;;;;;;5043866;28;20203;-86
2020/12/26 00:16:18;;;;;;;11.27;5.80;;;2.00;96.90;;;;;;5044114;28;20189;-85
2020/12/26 00:18:44;;;;;;;17.02;6.10;;;2.00;96.90;;;;;;5044756;28;20165;-85
2020/12/26 00:21:17;;;;;;;16.05;7.15;;;2.00;97.00;;;;;;5044383;28;20178;-84
2020/12/26 00:23:43;;;;;;;21.85;8.52;;;1.90;97.30;;;;;;5044967;28;20234;-85
2020/12/26 00:26:09;;;;;;;17.08;9.07;;;1.80;97.50;;;;;;5046633;28;20200;-85
2020/12/26 00:28:36;;;;;;;15.20;8.47;;;1.90;97.60;;;;;;5045552;28;20173;-86
2020/12/26 00:31:02;;;;;;;24.40;9.95;;;1.80;97.80;;;;;;5045524;28;20422;-84
2020/12/26 00:33:30;;;;;;;28.70;10.68;;;1.70;98.30;;;;;;5045654;28;20197;-85
2020/12/26 00:35:56;;;;;;;19.48;9.38;;;1.60;98.50;;;;;;5045941;28;20666;-86
2020/12/26 00:38:22;;;;;;;25.30;10.50;;;1.50;99.00;;;;;;5045795;28;20177;-85
2020/12/26 00:40:47;;;;;;;26.20;11.13;;;1.40;99.10;;;;;;5045055;28;20411;-87
2020/12/26 00:43:16;;;;;;;23.83;10.40;;;1.40;99.10;;;;;;5045242;28;20431;-87
2020/12/26 00:45:42;;;;;;;23.17;11.07;;;1.40;99.10;;;;;;5045947;28;20215;-85
2020/12/26 00:48:08;;;;;;;27.13;11.27;;;1.30;99.10;;;;;;5045238;28;20212;-85
2020/12/26 00:50:33;;;;;;;20.73;10.23;;;1.30;99.10;;;;;;5045055;28;20503;-85
2020/12/26 00:52:59;;;;;;;24.80;10.23;;;1.40;99.10;;;;;;5045013;28;20181;-85
2020/12/26 00:55:25;;;;;;;23.47;9.93;;;1.40;99.10;;;;;;5044443;28;20174;-86
2020/12/26 00:57:51;;;;;;;28.47;11.80;;;1.40;99.10;;;;;;5044363;28;20722;-85
2020/12/26 01:00:16;;;;;;;18.70;10.50;;;1.40;99.10;;;;;;5043903;28;20181;-86
2020/12/26 01:02:42;;;;;;;20.00;9.27;;;1.40;99.10;;;;;;5044474;28;20423;-85
2020/12/26 01:05:08;;;;;;;17.40;8.77;;;1.40;99.10;;;;;;5044148;28;20408;-87
2020/12/26 01:07:34;;;;;;;28.27;11.67;;;1.30;99.10;;;;;;5043844;28;20435;-87
2020/12/26 01:09:59;;;;;;;22.40;10.60;;;1.30;99.10;;;;;;5061286;28;20219;-85
2020/12/26 01:12:25;;;;;;;22.53;10.37;;;1.40;99.10;;;;;;5043722;28;20231;-86
2020/12/26 01:14:51;;;;;;;31.20;9.27;;;1.30;98.90;;;;;;5043743;28;20197;-84
2020/12/26 01:17:16;;;;;;;27.07;10.80;;;1.30;99.00;;;;;;5044017;28;20196;-85
2020/12/26 01:19:44;;;;;;;29.63;10.43;;;1.40;98.90;;;;;;5043378;28;20519;-87
2020/12/26 01:22:10;;;;;;;25.17;10.77;;;1.30;98.80;;;;;;5043432;28;20419;-86
2020/12/26 01:24:35;;;;;;;21.60;10.57;;;1.40;98.80;;;;;;5043227;28;20180;-86
2020/12/26 01:27:01;;;;;;;28.17;10.20;;;1.40;98.60;;;;;;5042998;28;20467;-85
2020/12/26 01:29:27;;;;;;;26.53;10.40;;;1.30;98.70;;;;;;5043308;28;20177;-85
2020/12/26 01:31:53;;;;;;;25.27;9.00;;;1.30;98.60;;;;;;5043883;28;20420;-85
2020/12/26 01:34:19;;;;;;;21.70;9.00;;;1.30;98.70;;;;;;5044001;28;20207;-86
2020/12/26 01:36:55;;;;;;;21.92;9.70;;;1.30;99.00;;;;;;5044043;28;20439;-86
2020/12/26 01:39:23;;;;;;;18.83;8.70;;;1.20;99.10;;;;;;5043834;28;20161;-85
2020/12/26 01:41:55;;;;;;;21.02;8.65;;;1.30;99.10;;;;;;5044064;28;20169;-85
2020/12/26 01:46:49;;;;;;;15.60;7.70;;;1.30;98.70;;;;;;5127959;22;20233;-81
2020/12/26 01:49:16;;;;;;;21.98;7.53;;;1.30;98.60;;;;;;5039828;28;20628;-81
2020/12/26 01:51:44;;;;;;;19.95;8.88;;;1.30;98.70;;;;;;5039272;28;20177;-81
2020/12/26 01:54:10;;;;;;;27.27;8.18;;;1.30;98.60;;;;;;5038546;28;20222;-82
2020/12/26 01:56:38;;;;;;;18.52;7.72;;;1.30;98.50;;;;;;5038984;28;20193;-82
2020/12/26 01:59:04;;;;;;;17.23;7.50;;;1.30;98.30;;;;;;5039138;28;20173;-82
2020/12/26 02:01:38;;;;;;;16.23;6.68;;;1.30;98.10;;;;;;5039224;28;20260;-81
2020/12/26 02:04:05;;;;;;;17.65;6.88;;;1.30;98.20;;;;;;5038558;28;20223;-82
2020/12/26 02:06:42;;;;;;;17.05;7.43;;;1.30;98.40;;;;;;5038392;28;20216;-82
2020/12/26 02:09:10;;;;;;;17.50;7.00;;;1.30;98.50;;;;;;5038037;28;20668;-82
2020/12/26 02:11:36;;;;;;;13.50;7.10;;;1.30;98.60;;;;;;5037979;28;20212;-82
2020/12/26 02:14:01;;;;;;;21.53;7.53;;;1.40;98.60;;;;;;5038749;28;20193;-82
2020/12/26 02:16:27;;;;;;;16.93;7.80;;;1.40;98.70;;;;;;5038411;28;20423;-82
2020/12/26 02:18:54;;;;;;;16.57;7.30;;;1.50;98.70;;;;;;5037679;28;20205;-82
2020/12/26 02:21:23;;;;;;;28.90;8.02;;;1.50;98.60;;;;;;5036846;28;20713;-80
2020/12/26 02:23:49;;;;;;;17.90;7.93;;;1.60;98.50;;;;;;5036257;28;20173;-79
2020/12/26 02:26:15;;;;;;;24.90;9.25;;;1.60;98.30;;;;;;5036078;28;20547;-80
2020/12/26 02:28:41;;;;;;;17.27;8.00;;;1.70;98.30;;;;;;5036664;28;20279;-80
2020/12/26 02:31:08;;;;;;;16.95;8.35;;;1.70;98.20;;;;;;5035940;28;20443;-79
2020/12/26 02:33:34;;;;;;;24.50;10.18;;;1.70;98.20;;;;;;5036066;28;20197;-81
2020/12/26 02:36:04;;;;;;;18.00;9.07;;;1.70;98.20;;;;;;5037490;28;20243;-82
2020/12/26 02:38:30;;;;;;;14.80;6.97;;;1.70;98.10;;;;;;5037576;28;20176;-82
2020/12/26 02:40:56;;;;;;;16.00;7.33;;;1.60;98.00;;;;;;5036801;28;20169;-81
2020/12/26 02:43:26;;;;;;;21.55;7.30;;;1.70;98.00;;;;;;5037024;28;20192;-82
2020/12/26 02:45:54;;;;;;;25.08;10.27;;;1.70;97.80;;;;;;5036561;28;20208;-81
2020/12/26 02:48:19;;;;;;;16.27;6.60;;;1.70;97.80;;;;;;5036824;28;20573;-81
2020/12/26 02:50:45;;;;;;;17.57;7.07;;;1.70;98.10;;;;;;5036185;28;20185;-82
2020/12/26 02:53:11;;;;;;;27.45;9.98;;;1.70;98.10;;;;;;5035738;28;20460;-82
2020/12/26 02:55:37;;;;;;;15.87;7.90;;;1.70;98.00;;;;;;5036188;28;20196;-82
2020/12/26 02:58:03;;;;;;;17.47;6.70;;;1.70;98.00;;;;;;5036488;28;20488;-82
2020/12/26 03:00:30;;;;;;;17.45;8.48;;;1.80;97.90;;;;;;5036218;28;20416;-82
2020/12/26 03:02:56;;;;;;;23.98;9.40;;;1.80;98.00;;;;;;5036443;28;20165;-81
2020/12/26 03:05:22;;;;;;;23.40;9.65;;;1.80;98.20;;;;;;5036539;28;20288;-81
2020/12/26 03:07:47;;;;;;;17.17;8.50;;;1.80;98.30;;;;;;5036846;28;20174;-82
2020/12/26 03:10:13;;;;;;;21.00;9.27;;;1.80;98.10;;;;;;5036684;28;20502;-82
2020/12/26 03:12:39;;;;;;;18.73;8.20;;;1.80;98.00;;;;;;5036268;28;20173;-81
2020/12/26 03:15:06;;;;;;;22.57;9.00;;;1.90;97.90;;;;;;5036314;28;20608;-81
2020/12/26 03:17:32;;;;;;;23.08;10.55;;;1.90;98.10;;;;;;5036509;28;20420;-81
2020/12/26 03:19:58;;;;;;;22.38;9.05;;;1.90;98.00;;;;;;5036666;28;20616;-81
2020/12/26 03:22:28;;;;;;;38.53;11.43;;;1.80;98.20;;;;;;5036380;28;20193;-81
2020/12/26 03:24:54;;;;;;;24.85;10.70;;;1.80;98.30;;;;;;5036969;28;20695;-81
2020/12/26 03:27:21;;;;;;;30.15;10.82;;;1.80;98.40;;;;;;5036905;28;20252;-81
2020/12/26 03:29:47;;;;;;;25.27;11.55;;;1.80;98.50;;;;;;5036524;28;20319;-82
2020/12/26 03:32:12;;;;;;;23.57;9.80;;;1.80;98.40;;;;;;5036799;28;20177;-82
2020/12/26 03:34:38;;;;;;;20.75;9.98;;;1.80;98.60;;;;;;5037541;28;20494;-82
2020/12/26 03:37:05;;;;;;;22.30;10.33;;;1.80;98.60;;;;;;5037368;28;20193;-82
2020/12/26 03:39:35;;;;;;;25.60;10.82;;;1.80;98.70;;;;;;5037803;28;20170;-82
2020/12/26 03:42:11;;;;;;;18.13;9.35;;;1.80;98.90;;;;;;5037414;28;20250;-82
2020/12/26 03:44:38;;;;;;;21.10;9.80;;;1.70;99.10;;;;;;5037529;28;20736;-82
2020/12/26 03:47:09;;;;;;;25.70;11.10;;;1.80;99.10;;;;;;5037616;28;20196;-82
2020/12/26 03:49:35;;;;;;;24.42;10.43;;;1.90;99.00;;;;;;5037446;28;20183;-82
2020/12/26 03:52:02;;;;;;;20.15;9.98;;;1.90;98.60;;;;;;5037382;28;20173;-82
2020/12/26 03:54:27;;;;;;;22.63;11.70;;;1.90;98.60;;;;;;5038083;28;20201;-82
2020/12/26 03:56:53;;;;;;;23.07;10.20;;;1.90;98.50;;;;;;5037690;28;20193;-82
2020/12/26 03:59:19;;;;;;;20.67;9.60;;;1.90;98.30;;;;;;5037987;28;20211;-82
2020/12/26 04:01:45;;;;;;;24.80;11.00;;;1.80;98.50;;;;;;5037526;28;20415;-82
2020/12/26 04:04:13;;;;;;;30.47;10.70;;;1.80;98.90;;;;;;5037711;28;20542;-82
2020/12/26 04:06:42;;;;;;;22.65;9.57;;;1.80;98.70;;;;;;5038153;28;20432;-82
2020/12/26 04:09:09;;;;;;;24.58;10.60;;;1.90;98.70;;;;;;5038167;28;20176;-82
2020/12/26 04:11:35;;;;;;;22.00;11.35;;;1.90;98.80;;;;;;5037706;28;20170;-81
2020/12/26 04:14:01;;;;;;;22.23;10.38;;;2.00;98.70;;;;;;5037383;28;20197;-82
2020/12/26 04:16:27;;;;;;;23.20;10.20;;;2.00;98.50;;;;;;5037564;28;20189;-82
2020/12/26 04:18:53;;;;;;;34.00;10.93;;;2.00;98.20;;;;;;5037879;28;20180;-82
2020/12/26 04:21:26;;;;;;;25.70;10.40;;;1.90;98.50;;;;;;5038024;28;20450;-82
2020/12/26 04:23:52;;;;;;;19.65;10.98;;;1.90;98.60;;;;;;5055579;28;20538;-80
2020/12/26 04:26:18;;;;;;;37.30;10.25;;;1.90;98.70;;;;;;5036505;28;20287;-82
2020/12/26 04:28:44;;;;;;;22.35;10.55;;;2.00;98.60;;;;;;5038152;28;20173;-82
2020/12/26 04:31:10;;;;;;;25.30;9.20;;;2.00;98.40;;;;;;5037584;28;20231;-82
2020/12/26 04:33:36;;;;;;;31.63;11.30;;;2.00;98.30;;;;;;5037277;28;20447;-82
2020/12/26 04:36:02;;;;;;;23.58;11.57;;;2.10;98.40;;;;;;5036016;28;20435;-79
2020/12/26 04:38:28;;;;;;;22.40;10.40;;;2.10;98.20;;;;;;5035004;28;20170;-82
2020/12/26 04:40:54;;;;;;;24.77;11.40;;;2.10;98.10;;;;;;5036395;28;20411;-82
2020/12/26 04:43:19;;;;;;;26.63;10.17;;;2.10;98.20;;;;;;5035416;28;20420;-80
2020/12/26 04:45:47;;;;;;;20.50;9.03;;;2.10;98.30;;;;;;5036677;28;20827;-83
2020/12/26 04:48:15;;;;;;;21.65;9.82;;;2.20;98.10;;;;;;5038822;28;20181;-80
2020/12/26 04:50:48;;;;;;;19.95;8.65;;;2.20;98.00;;;;;;5038492;28;20181;-80
2020/12/26 04:53:20;;;;;;;26.25;10.68;;;2.20;97.90;;;;;;5038521;28;20197;-79
2020/12/26 04:55:48;;;;;;;26.50;10.38;;;2.30;98.00;;;;;;5038171;28;20614;-80
2020/12/26 04:58:16;;;;;;;23.95;9.65;;;2.30;97.90;;;;;;5038557;28;20176;-79
2020/12/26 05:00:42;;;;;;;20.25;9.02;;;2.30;97.80;;;;;;5038460;28;20623;-80
2020/12/26 05:03:13;;;;;;;25.10;10.32;;;2.30;97.70;;;;;;5038168;28;20173;-79
2020/12/26 05:05:43;;;;;;;23.98;10.23;;;2.30;97.90;;;;;;5038227;28;20208;-80
2020/12/26 05:08:11;;;;;;;26.95;10.00;;;2.30;98.00;;;;;;5038822;28;20584;-84
2020/12/26 05:10:38;;;;;;;19.13;9.57;;;2.30;98.00;;;;;;5038832;28;20188;-80
2020/12/26 05:13:09;;;;;;;27.98;11.20;;;2.30;98.10;;;;;;5038104;28;20166;-79
2020/12/26 05:15:35;;;;;;;30.65;12.23;;;2.30;98.00;;;;;;5038209;28;20624;-79
2020/12/26 05:18:02;;;;;;;24.35;10.32;;;2.30;97.60;;;;;;5038198;28;20174;-79
2020/12/26 05:20:28;;;;;;;37.40;10.98;;;2.30;97.70;;;;;;5037915;28;20169;-80
2020/12/26 05:23:10;;;;;;;20.52;8.57;;;2.30;97.80;;;;;;5037471;28;20260;-79
2020/12/26 05:25:54;;;;;;;22.83;10.10;;;2.30;97.90;;;;;;5037779;28;20677;-80
2020/12/26 05:28:32;;;;;;;27.70;10.70;;;2.30;98.10;;;;;;5038116;28;20165;-79
2020/12/26 05:30:58;;;;;;;22.92;10.48;;;2.30;97.90;;;;;;5037446;28;20602;-80
2020/12/26 05:33:30;;;;;;;31.23;11.95;;;2.20;98.10;;;;;;5037309;28;20612;-82
2020/12/26 05:36:04;;;;;;;28.20;11.50;;;2.20;98.10;;;;;;5039185;28;20219;-82
2020/12/26 05:38:30;;;;;;;40.75;13.32;;;2.30;98.20;;;;;;5039552;28;20157;-82
2020/12/26 05:41:01;;;;;;;20.93;9.43;;;2.30;98.40;;;;;;5039544;28;20230;-82
2020/12/26 05:43:31;;;;;;;24.13;11.15;;;2.30;98.40;;;;;;5039323;28;20432;-81
2020/12/26 05:45:58;;;;;;;27.55;10.45;;;2.30;98.50;;;;;;5039218;28;20740;-81
2020/12/26 05:48:26;;;;;;;27.08;12.60;;;2.30;98.70;;;;;;5039512;28;20226;-82
2020/12/26 05:51:00;;;;;;;26.10;11.68;;;2.30;98.80;;;;;;5038831;28;20169;-81
2020/12/26 05:53:27;;;;;;;26.05;10.95;;;2.30;99.00;;;;;;5039030;28;20284;-81
2020/12/26 05:55:53;;;;;;;23.17;10.05;;;2.40;99.00;;;;;;5038888;28;20193;-82
2020/12/26 05:58:24;;;;;;;23.00;9.93;;;2.30;98.60;;;;;;5037838;28;20170;-82
2020/12/26 06:00:51;;;;;;;33.60;12.65;;;2.30;98.90;;;;;;5038564;28;20164;-81
2020/12/26 06:03:24;;;;;;;27.33;11.15;;;2.30;98.60;;;;;;5038628;28;20207;-81
2020/12/26 06:05:58;;;;;;;36.60;11.10;;;2.20;98.90;;;;;;5038779;28;20604;-81
2020/12/26 06:08:25;;;;;;;32.17;12.25;;;2.20;98.90;;;;;;5038355;28;20161;-82
2020/12/26 06:10:59;;;;;;;28.20;11.27;;;2.20;99.10;;;;;;5038044;28;20666;-82
2020/12/26 06:13:27;;;;;;;25.95;10.73;;;2.10;99.10;;;;;;5038576;28;20201;-82
2020/12/26 06:15:56;;;;;;;24.65;12.13;;;2.10;99.10;;;;;;5038545;28;20250;-82
2020/12/26 06:18:24;;;;;;;32.47;11.65;;;2.10;99.10;;;;;;5038664;28;20689;-82
2020/12/26 06:20:53;;;;;;;25.73;11.32;;;2.00;99.00;;;;;;5037981;28;20258;-82
2020/12/26 06:23:26;;;;;;;31.27;11.95;;;2.00;99.10;;;;;;5038371;28;20252;-84
2020/12/26 06:25:53;;;;;;;29.83;12.63;;;2.00;99.10;;;;;;5038100;28;20197;-82
2020/12/26 06:28:33;;;;;;;29.63;11.55;;;1.90;99.10;;;;;;5038300;28;20550;-82
2020/12/26 06:31:08;;;;;;;32.22;13.60;;;1.80;99.10;;;;;;5037799;28;20169;-81
2020/12/26 06:33:46;;;;;;;34.88;13.18;;;1.80;99.10;;;;;;5036711;28;20211;-81
2020/12/26 06:36:13;;;;;;;31.52;12.00;;;1.80;99.10;;;;;;5036263;28;20200;-80
2020/12/26 06:38:40;;;;;;;32.72;12.10;;;1.70;99.10;;;;;;5035968;28;20169;-79
2020/12/26 06:41:07;;;;;;;35.67;13.35;;;1.70;99.10;;;;;;5036194;28;20181;-79
2020/12/26 06:43:39;;;;;;;33.00;14.35;;;1.80;99.10;;;;;;5036184;28;20181;-80
2020/12/26 06:46:14;;;;;;;31.23;13.07;;;1.80;99.10;;;;;;5035435;28;20258;-79
2020/12/26 06:48:44;;;;;;;34.00;13.27;;;1.80;99.10;;;;;;5035525;28;20180;-79
2020/12/26 06:51:28;;;;;;;31.80;11.35;;;1.80;99.10;;;;;;5035047;28;20181;-79
2020/12/26 06:53:56;;;;;;;30.17;12.10;;;1.90;99.10;;;;;;5034924;28;20290;-79
2020/12/26 06:56:34;;;;;;;24.88;12.38;;;1.90;99.10;;;;;;5035183;28;20876;-80
2020/12/26 06:59:00;;;;;;;28.52;12.13;;;1.80;99.10;;;;;;5035359;28;20173;-80
2020/12/26 07:01:26;;;;;;;30.47;12.20;;;1.90;99.10;;;;;;5035461;28;20660;-80
2020/12/26 07:04:10;;;;;;;27.65;10.95;;;1.90;99.10;;;;;;5035454;28;20249;-80
2020/12/26 07:06:50;;;;;;;32.08;12.85;;;2.00;99.10;;;;;;5035323;28;20750;-81
2020/12/26 07:09:35;;;;;;;27.88;11.20;;;2.00;99.10;;;;;;5037117;28;20173;-81
2020/12/26 07:12:00;;;;;;;35.13;12.60;;;2.10;99.10;;;;;;5037356;28;20181;-82
2020/12/26 07:14:46;;;;;;;27.00;11.80;;;2.10;99.10;;;;;;5037360;28;20216;-81
2020/12/26 07:17:14;;;;;;;31.92;12.88;;;2.10;99.10;;;;;;5037463;28;20605;-82
2020/12/26 07:19:47;;;;;;;30.27;11.77;;;2.20;99.10;;;;;;5037196;28;20508;-81
2020/12/26 07:22:19;;;;;;;32.97;12.07;;;2.20;99.00;;;;;;5037123;28;20173;-81
2020/12/26 07:24:48;;;;;;;25.95;10.82;;;2.20;98.90;;;;;;5037456;28;20264;-82
2020/12/26 07:27:22;;;;;;;34.55;12.98;;;2.20;98.50;;;;;;5036769;28;20205;-81
2020/12/26 07:29:54;;;;;;;27.95;12.18;;;2.20;98.30;;;;;;5036354;28;20190;-79
2020/12/26 07:32:39;;;;;;;34.72;12.18;;;2.20;98.10;;;;;;5034840;28;20173;-79
2020/12/26 07:35:14;;;;;;;36.80;11.50;;;2.10;98.10;;;;;;5035130;28;20292;-79
2020/12/26 07:37:45;;;;;;;30.75;11.45;;;2.00;98.30;;;;;;5035324;28;20185;-81
2020/12/26 07:40:29;;;;;;;33.88;13.23;;;2.00;98.50;;;;;;5037396;28;20169;-81
2020/12/26 07:42:55;;;;;;;26.92;10.57;;;2.00;98.60;;;;;;5037011;28;20189;-81
2020/12/26 07:45:23;;;;;;;37.33;11.50;;;2.00;98.40;;;;;;5037515;28;20191;-81
2020/12/26 07:47:54;;;;;;;31.63;14.43;;;2.00;98.40;;;;;;5106108;23;20219;-86
2020/12/26 07:50:23;;;;;;;33.00;12.00;;;2.10;98.40;;;;;;5034383;28;20676;-86
2020/12/26 07:52:49;;;;;;;24.52;11.18;;;2.00;98.30;;;;;;5034562;28;20172;-86
2020/12/26 07:55:16;;;;;;;36.30;10.88;;;2.10;98.20;;;;;;5034042;28;20208;-86
2020/12/26 07:57:42;;;;;;;27.30;11.70;;;2.00;98.20;;;;;;5014789;28;20230;-86
2020/12/26 08:00:19;;;;;;;32.55;10.75;;;2.00;98.60;;;;;;5015073;28;20178;-86
2020/12/26 08:03:06;;;;;;;28.88;11.23;;;2.00;98.50;;;;;;5014932;28;20545;-86
2020/12/26 08:05:34;;;;;;;31.63;12.48;;;2.10;98.60;;;;;;5014815;28;20166;-86
2020/12/26 08:08:11;;;;;;;25.80;11.07;;;2.10;98.30;;;;;;5014718;28;20173;-86
2020/12/26 08:10:37;;;;;;;28.40;9.70;;;2.10;98.30;;;;;;5014711;28;20252;-85
2020/12/26 08:13:03;;;;;;;19.37;9.67;;;2.20;98.40;;;;;;5014495;28;20209;-86
2020/12/26 08:15:30;;;;;;;44.95;11.63;;;2.10;98.30;;;;;;5014763;28;20181;-86
2020/12/26 08:18:00;;;;;;;28.88;11.48;;;2.10;98.60;;;;;;5014624;28;20170;-86
2020/12/26 08:20:28;;;;;;;35.80;11.93;;;2.10;98.50;;;;;;5016032;28;20161;-86
2020/12/26 08:22:55;;;;;;;34.08;11.30;;;2.10;98.80;;;;;;5036243;28;20181;-85
2020/12/26 08:25:23;;;;;;;29.90;11.50;;;2.10;98.90;;;;;;5018658;28;20538;-85
2020/12/26 08:27:49;;;;;;;24.48;11.50;;;2.10;99.00;;;;;;5017917;28;20177;-85
2020/12/26 08:30:27;;;;;;;26.13;12.20;;;2.10;98.90;;;;;;5018021;28;20523;-86
2020/12/26 08:33:04;;;;;;;32.78;12.85;;;2.10;98.80;;;;;;5018199;28;20273;-85
2020/12/26 08:35:31;;;;;;;27.30;12.70;;;2.10;99.00;;;;;;5018163;28;20612;-86
2020/12/26 08:38:07;;;;;;;30.30;12.23;;;2.10;98.90;;;;;;5019099;28;20178;-85
2020/12/26 08:40:36;;;;;;;25.85;11.30;;;2.10;99.00;;;;;;5017334;28;20173;-85
2020/12/26 08:43:03;;;;;;;21.13;10.73;;;2.10;99.10;;;;;;5007201;28;20265;-85
2020/12/26 08:45:32;;;;;;;26.10;11.85;;;2.00;99.10;;;;;;5008554;28;20170;-86
2020/12/26 08:48:01;;;;;;;29.02;11.10;;;2.10;99.10;;;;;;5018203;28;20273;-85
2020/12/26 08:50:28;;;;;;;28.90;12.23;;;2.10;98.90;;;;;;5002159;28;20174;-85
2020/12/26 08:53:21;;;;;;;28.13;11.20;;;2.20;98.90;;;;;;4998567;28;20181;-85
2020/12/26 08:55:50;;;;;;;31.13;10.98;;;2.30;98.70;;;;;;4997841;28;20626;-85
2020/12/26 08:58:31;;;;;;;32.15;11.80;;;2.30;98.60;;;;;;5008299;28;20180;-85
2020/12/26 09:01:02;;;;;;;25.00;10.13;;;2.40;98.80;;;;;;5018070;28;20166;-85
2020/12/26 09:03:29;;;;;;;28.88;11.68;;;2.50;98.60;;;;;;5017783;28;20634;-85
2020/12/26 09:05:58;;;;;;;24.83;11.35;;;2.50;98.10;;;;;;5018021;28;20226;-85
2020/12/26 09:08:32;;;;;;;30.85;10.63;;;2.60;97.80;;;;;;5017886;28;20204;-85
2020/12/26 09:11:07;;;;;;;26.88;11.05;;;2.70;97.10;;;;;;5017670;28;20180;-86
2020/12/26 09:13:40;;;;;;;29.08;12.02;;;2.80;96.70;;;;;;5017708;28;20276;-86
2020/12/26 09:16:07;;;;;;;31.27;11.88;;;2.90;96.40;;;;;;5017477;28;20245;-85
2020/12/26 09:18:45;;;;;;;26.35;11.05;;;2.90;96.30;;;;;;5017847;28;20252;-86
2020/12/26 09:21:26;;;;;;;25.50;11.10;;;2.90;96.30;;;;;;5017707;28;20201;-86
2020/12/26 09:23:56;;;;;;;29.45;11.20;;;3.00;96.20;;;;;;5017661;28;20177;-86
2020/12/26 09:26:25;;;;;;;24.60;11.20;;;2.90;95.80;;;;;;5017633;28;20198;-84
2020/12/26 09:29:09;;;;;;;24.02;10.23;;;3.00;96.10;;;;;;5017618;28;20245;-85
2020/12/26 09:31:37;;;;;;;21.90;9.93;;;3.10;95.70;;;;;;5017070;28;20173;-86
2020/12/26 09:34:23;;;;;;;20.63;9.05;;;3.20;95.70;;;;;;5017783;28;20194;-85
2020/12/26 09:37:05;;;;;;;33.92;12.07;;;3.20;95.30;;;;;;5012899;28;20186;-86
2020/12/26 09:39:31;;;;;;;24.42;10.52;;;3.20;95.40;;;;;;5017352;28;20186;-86
2020/12/26 09:41:57;;;;;;;25.25;9.82;;;3.20;94.80;;;;;;5017426;28;20184;-86
2020/12/26 09:44:23;;;;;;;20.33;11.17;;;3.30;95.00;;;;;;5017612;28;20261;-86
2020/12/26 09:46:59;;;;;;;21.90;10.60;;;3.30;95.60;;;;;;5017769;28;20228;-85
2020/12/26 09:49:25;;;;;;;25.58;10.68;;;3.40;94.90;;;;;;5017364;28;20227;-86
2020/12/26 09:51:50;;;;;;;24.27;9.27;;;3.50;94.80;;;;;;5016865;28;20734;-86
2020/12/26 09:54:16;;;;;;;25.17;9.10;;;3.50;93.70;;;;;;5016789;28;20448;-86
2020/12/26 09:56:42;;;;;;;19.23;8.80;;;3.50;93.90;;;;;;5016743;28;20494;-86
2020/12/26 09:59:08;;;;;;;22.33;8.68;;;3.70;94.20;;;;;;5017365;28;20216;-87
2020/12/26 10:01:34;;;;;;;23.87;9.33;;;3.80;94.50;;;;;;5016640;28;20561;-87
2020/12/26 10:04:00;;;;;;;28.48;10.55;;;3.90;93.70;;;;;;5017011;28;20540;-87
2020/12/26 10:06:26;;;;;;;33.25;9.27;;;3.90;93.00;;;;;;5016276;28;20198;-86
2020/12/26 10:08:52;;;;;;;24.27;9.70;;;4.00;93.40;;;;;;5016189;28;20177;-86
2020/12/26 10:11:19;;;;;;;29.10;9.45;;;4.10;93.70;;;;;;5016289;28;20200;-88
2020/12/26 10:13:46;;;;;;;18.55;9.45;;;4.20;92.40;;;;;;5016131;28;20198;-87
2020/12/26 10:16:15;;;;;;;27.02;9.50;;;4.20;92.50;;;;;;5016099;28;20238;-87
2020/12/26 10:18:41;;;;;;;21.58;9.50;;;4.40;92.60;;;;;;5015971;28;20178;-87
2020/12/26 10:21:07;;;;;;;18.03;8.50;;;4.40;91.60;;;;;;5016737;28;20656;-87
2020/12/26 10:23:33;;;;;;;16.73;7.33;;;4.50;91.20;;;;;;5016220;28;20178;-88
2020/12/26 10:26:06;;;;;;;19.27;7.23;;;4.60;90.60;;;;;;5016451;28;20428;-87
2020/12/26 10:28:32;;;;;;;14.45;7.32;;;4.70;88.70;;;;;;5016131;28;20556;-87
2020/12/26 10:30:59;;;;;;;16.27;6.40;;;4.70;87.60;;;;;;5016511;28;20174;-87
2020/12/26 10:33:25;;;;;;;21.00;6.93;;;4.70;87.70;;;;;;5015830;28;20201;-87
2020/12/26 10:35:51;;;;;;;15.40;7.07;;;4.70;86.60;;;;;;5015883;28;20300;-87
2020/12/26 10:38:17;;;;;;;10.60;5.73;;;4.80;89.10;;;;;;5016102;28;20278;-87
2020/12/26 10:40:43;;;;;;;16.87;5.53;;;4.70;85.30;;;;;;5015979;28;20920;-87
2020/12/26 10:43:08;;;;;;;14.57;6.23;;;4.70;87.00;;;;;;5015317;28;20409;-87
2020/12/26 10:45:34;;;;;;;15.63;7.73;;;4.80;86.30;;;;;;5015431;28;20170;-88
2020/12/26 10:48:00;;;;;;;16.17;6.50;;;4.90;88.10;;;;;;5015685;28;20658;-88
2020/12/26 10:50:26;;;;;;;14.70;6.77;;;5.00;86.40;;;;;;5015552;28;20170;-87
2020/12/26 10:52:51;;;;;;;18.60;6.30;;;5.10;87.40;;;;;;5015369;28;20417;-88
2020/12/26 10:55:18;;;;;;;13.03;6.27;;;5.10;87.10;;;;;;5015433;28;20807;-87
2020/12/26 10:57:43;;;;;;;14.05;5.20;;;5.10;88.30;;;;;;5015876;28;20196;-87
2020/12/26 11:00:10;;;;;;;18.87;7.30;;;5.30;84.50;;;;;;5015509;28;20170;-87
2020/12/26 11:02:37;;;;;;;10.90;5.75;;;5.30;84.20;;;;;;5015385;28;20170;-87
2020/12/26 11:05:03;;;;;;;17.02;6.20;;;5.40;86.20;;;;;;5015717;28;20170;-88
2020/12/26 11:07:29;;;;;;;15.95;6.20;;;5.40;83.90;;;;;;5015362;28;20220;-88
2020/12/26 11:09:55;;;;;;;13.20;5.20;;;5.50;82.00;;;;;;5015600;28;20653;-88
2020/12/26 11:12:21;;;;;;;12.13;5.00;;;5.50;81.00;;;;;;5015532;28;20170;-88
2020/12/26 11:14:47;;;;;;;10.40;4.87;;;5.60;81.60;;;;;;5015311;28;20260;-88
2020/12/26 11:17:13;;;;;;;19.10;7.35;;;5.70;82.00;;;;;;5016070;28;20228;-87
2020/12/26 11:19:40;;;;;;;21.73;6.70;;;5.60;81.20;;;;;;5015351;28;20178;-88
2020/12/26 11:22:05;;;;;;;9.07;5.55;;;5.60;82.00;;;;;;5015024;28;20177;-88
2020/12/26 11:24:31;;;;;;;15.07;6.70;;;5.70;82.70;;;;;;5015371;28;20190;-88
2020/12/26 11:26:57;;;;;;;22.43;6.73;;;5.70;80.80;;;;;;5016073;28;20433;-87
2020/12/26 11:29:23;;;;;;;12.43;4.57;;;5.70;81.40;;;;;;5015993;28;20170;-86
2020/12/26 11:31:49;;;;;;;10.75;4.97;;;5.70;81.60;;;;;;4999803;28;20437;-86
2020/12/26 11:34:15;;;;;;;14.80;4.90;;;5.80;81.60;;;;;;5016346;28;20208;-85
2020/12/26 11:36:42;;;;;;;14.60;5.43;;;5.80;81.30;;;;;;5015736;28;20432;-86
2020/12/26 11:39:10;;;;;;;19.20;6.32;;;5.70;80.90;;;;;;5018144;28;20799;-85
2020/12/26 11:41:36;;;;;;;8.75;5.30;;;5.70;82.60;;;;;;5016998;28;20174;-85
2020/12/26 11:44:03;;;;;;;12.38;5.47;;;5.70;82.40;;;;;;5016066;28;20182;-85
2020/12/26 11:46:29;;;;;;;10.55;5.40;;;5.80;83.70;;;;;;5017710;28;20225;-86
2020/12/26 11:48:55;;;;;;;9.88;4.93;;;5.70;83.40;;;;;;5016682;28;20189;-86
2020/12/26 11:51:21;;;;;;;14.98;5.72;;;5.80;82.10;;;;;;5016922;28;20265;-86
2020/12/26 11:53:47;;;;;;;11.50;6.38;;;5.90;79.10;;;;;;5016799;28;20202;-85
2020/12/26 11:56:17;;;;;;;9.18;4.50;;;5.90;82.10;;;;;;5016419;28;20185;-85
2020/12/26 11:58:43;;;;;;;10.30;4.35;;;5.80;79.50;;;;;;5017271;28;20166;-85
2020/12/26 12:01:10;;;;;;;10.98;6.00;;;5.90;80.60;;;;;;5018998;28;20170;-83
2020/12/26 12:03:37;;;;;;;8.32;4.30;;;5.90;81.20;;;;;;5015794;28;20178;-86
2020/12/26 12:06:04;;;;;;;8.70;5.00;;;6.00;79.50;;;;;;5015127;28;20232;-85
2020/12/26 12:08:30;;;;;;;9.52;4.90;;;6.00;76.30;;;;;;5015487;28;20606;-86
2020/12/26 12:10:56;;;;;;;18.90;4.57;;;6.00;77.70;;;;;;5014715;28;20204;-85
2020/12/26 12:13:22;;;;;;;7.70;3.57;;;6.00;74.20;;;;;;5015222;28;20186;-86
2020/12/26 12:15:47;;;;;;;8.00;4.20;;;5.90;72.60;;;;;;5014853;28;20432;-86
2020/12/26 12:18:19;;;;;;;7.60;4.43;;;5.90;75.20;;;;;;5015217;28;20456;-85
2020/12/26 12:20:45;;;;;;;15.60;4.80;;;5.90;74.20;;;;;;5015462;28;20174;-85
2020/12/26 12:23:11;;;;;;;12.00;5.00;;;5.90;75.80;;;;;;5015854;28;20305;-85
2020/12/26 12:25:40;;;;;;;8.63;5.23;;;5.90;75.10;;;;;;5015349;28;20820;-86
2020/12/26 12:28:06;;;;;;;10.63;5.90;;;5.90;76.00;;;;;;5014536;28;20439;-84
2020/12/26 12:30:31;;;;;;;10.50;4.90;;;5.90;75.80;;;;;;5031321;28;20553;-84
2020/12/26 12:32:57;;;;;;;7.50;4.70;;;5.90;76.70;;;;;;5015368;28;20421;-84
2020/12/26 12:35:23;;;;;;;8.67;4.60;;;5.90;75.10;;;;;;5014930;28;20293;-84
2020/12/26 12:37:50;;;;;;;11.47;4.00;;;5.90;74.50;;;;;;5015613;28;20166;-84
2020/12/26 12:40:16;;;;;;;5.63;3.30;;;5.80;71.20;;;;;;5015095;28;20208;-84
2020/12/26 12:42:45;;;;;;;8.65;3.35;;;5.80;72.00;;;;;;5013524;28;20235;-84
2020/12/26 12:45:11;;;;;;;9.52;4.05;;;5.70;71.00;;;;;;5015666;28;20269;-83
2020/12/26 12:47:37;;;;;;;14.35;5.05;;;5.60;71.60;;;;;;5015071;28;20245;-84
2020/12/26 12:50:06;;;;;;;17.03;5.80;;;5.60;72.80;;;;;;5015024;28;20224;-84
2020/12/26 12:52:31;;;;;;;8.93;4.53;;;5.50;74.80;;;;;;5014897;28;20177;-84